map of KTT home
Great Circle Mapper logo
KTT - Airport
Location
City:  Kittila, Finland
ICAO / IATA:EFKT / KTT

Details
Type:Airport (Aerodrome, Airfield)
Latitude:6742'04"N (67.701022)
Longitude:2450'49"E (24.846850)
Datum:WGS 1984
Elevation:644 ft (196 m)
Runways:1
Longest:8202 × 148 ft (2500 × 45 m), paved

Time
Time Zone:UTC+2 (DST+3)
Local Time:

Weather
METAR:EFKT 232350Z AUTO 02007KT 340V070 CAVOK M01/M02 Q1013

Related Locations
Nearby:
Farthest:NZWD: 11416 mi / 18372 km
McMurdo Station [Williams Field], Ross Island, AQ

Find:

   beyond  
but within

Other Information
Maps:
NOTAMs:
Links:
Sources:

  
flag of Finland   

Sectional Chart

Flight Planning
at skyvector.com

Satellite Image

Google Maps Satellite View

 

Copyright © 2004-2014 Karl L. Swartz. All rights reserved.
The Great Circle Mapper name and logo are trademarks of the Great Circle Mapper.
All other trademarks mentioned herein belong to their respective owners.
Please see credits for attibutions and further copyright information.

  Follow gcmap on Facebook Follow gcmap on Twitter

hCard Microformat

Geo Microformat